MP3/FLAC

‹ prev 2017-12-04 next › 705 release(s) · 53,01 GB · filter: day
Release Group Size Files Date ↓
Drogao-Tartrana-WEB-2017-SFH SFH 20,11 MB 5 2017-12-04
Ello-I_Cant_Lose-WEB-2017-SFH SFH 33,84 MB 6 2017-12-04
Kriess_Guyte-Aspirations-WEB-2017-AFO AFO 16,67 MB 4 2017-12-04
Tickets-Silent_Solutions-CD-FLAC-2017-SMASH SMASH 417,82 MB 13 2017-12-04
D-Block_and_S-Te-Fan_-_Above_Average-(EVO045)-WEB-2017-MMS MMS 10,99 MB 4 2017-12-04
6ix9ine-KOODA-(Single)-WEB-2017-ESG ESG 5,44 MB 4 2017-12-04
Dark_Monks-Insane-WEB-2017-AFO AFO 31,63 MB 5 2017-12-04
David_Forbes_and_Mallorca_Lee-Time_Travel-WEB-2017-AFO AFO 14,24 MB 4 2017-12-04
Andromedha-Why_We_Fall-WEB-2017-AFO AFO 17,88 MB 4 2017-12-04
VA-Chacaruna-Compiled_By_Emiel-CD-FLAC-2017-SMASH SMASH 537,50 MB 14 2017-12-04
Tron-Boundless-CD-FLAC-2017-SMASH SMASH 485,46 MB 14 2017-12-04
Ezenia_-_Energetic-(XBONE210)-WEB-2017-MMS MMS 10,38 MB 3 2017-12-04
Rico_Rossi-Can_We_Get_Away_(feat_Rayven_Justice_and_Thuy)-SINGLE-WEB-2017-ENRAGED ENRAGED 7,02 MB 3 2017-12-04
Miss_Blanks-Diary_Of_A_Thotaholic-EP-WEB-2017-ENRAGED ENRAGED 36,74 MB 9 2017-12-04
Ramzi_Benlakehal-Black_Leaf-WEB-2017-SFH SFH 15,26 MB 4 2017-12-04
VA-Minimal_Techno_Listing-WEB-2017-FURY FURY 290,36 MB 24 2017-12-04
Techno_Red-Hypnotic_Melody-WEB-2017-FURY FURY 33,51 MB 6 2017-12-04
Artik-Contemplation-WEB-2017-FURY FURY 48,69 MB 7 2017-12-04
Valentin_Mase-Sky_Turned_Red_EP-(PRRUKD091)-WEB-2017-CBR CBR 53,52 MB 7 2017-12-04
Skymate-Shake_It_To_The_Floor-WEB-2017-FURY FURY 59,30 MB 8 2017-12-04
VA-Tfb_Records_Best_Of_2017_Pt_1_(Mixed_By_Aldo_Henrycho)-WEB-2017-SFH SFH 336,64 MB 25 2017-12-04
Guanlong-Two_Different_Sidewalks-WEB-2017-FURY FURY 60,10 MB 6 2017-12-04
Love_Kr3W-Swept_Away-WEB-2017-POWPOW POWPOW 7,65 MB 4 2017-12-04
Danny_Dipoli-Road_To_Xibalba-WEB-2017-FURY FURY 59,12 MB 6 2017-12-04
Dranthorium-Ame-WEB-2017-SFH SFH 20,25 MB 4 2017-12-04
Fabrizio_Conti-Life_and_Death_EP-WEB-2017-FURY FURY 36,33 MB 5 2017-12-04
Vais-Hysteria-WEB-2017-SFH SFH 15,17 MB 4 2017-12-04
Jakub_Cheerful-Windy-WEB-2017-SFH SFH 12,74 MB 4 2017-12-04
The_Synth_Project-Bioshock-WEB-2017-FURY FURY 24,70 MB 5 2017-12-04
Protech-Wrong_Detection-WEB-2017-SFH SFH 17,40 MB 4 2017-12-04
VA-The_London_American_Label_Year_By_Year_1966-2015-gF gF 78,70 MB 31 2017-12-04
VA-Beef_Ball_Baby_The_New_Orleans_R_And_B_Sessions-2015-gF gF 75,47 MB 27 2017-12-04
Morrissey-Low_In_High_School-2017-ERP ERP 98,78 MB 15 2017-12-04
Mel-Undercover_Wine-WEB-2017-JAH JAH 7,50 MB 4 2017-12-04
How_To_Be_Invisible_-_Hidden_Treasure_EP-(CATID021)-WEB-2017-SRG SRG 46,61 MB 7 2017-12-04
Dennis_Sheperd_-_Copenhagen-(CLHR290)-WEB-2017-MMS_INT MMS_INT 14,87 MB 4 2017-12-04
Miroslav_Skoro-Domovina_1985-2015_Album_najljepsih_domoljubnih_pjesama-WEB-HR-2016-I_KnoW_INT I_KnoW_INT 177,50 MB 22 2017-12-04
Last_Days_Of_S.E.X.-Sabotage_Normality-CD-FLAC-2017-D2H D2H 497,35 MB 21 2017-12-04
Tomohiko_Sagae-Sensory_Deprivation-CD-FLAC-2017-D2H D2H 412,14 MB 16 2017-12-04
Timofey_Sobolev-Future_Techno-WEB-2017-FURY FURY 10,60 MB 5 2017-12-04
Menesix-Toma-WEB-2017-2FAST4U 2FAST4U 15,89 MB 5 2017-12-04
Al2_El_Aladeano-Un_Beso-WEB-2017-FURY FURY 11,64 MB 5 2017-12-04
Calendulart-Danger-WEB-2017-FURY FURY 18,46 MB 4 2017-12-04
Disco_Ball_Z-Da_Same_Thang-WEB-2017-FURY FURY 13,00 MB 4 2017-12-04
Sokol-Listen-WEB-2017-2FAST4U 2FAST4U 13,67 MB 4 2017-12-04
Broodtuz-Booze-WEB-2017-FURY FURY 5,13 MB 4 2017-12-04
Nacho_Palumbo-Acuarela-WEB-2017-FURY FURY 19,52 MB 5 2017-12-04
Tontherapie-Break_It_Down-WEB-2017-FURY FURY 13,23 MB 5 2017-12-04
Cyber_Pink_Amazon-Weather-WEB-2017-2FAST4U 2FAST4U 7,30 MB 4 2017-12-04
Vic_Zee-Universal_Loop-WEB-2017-FURY FURY 14,44 MB 4 2017-12-04